Time;durP1;ratioP1;P1;durP2;ratioP2;P2;SDS_P1;SDS_P2;PMS_P1;PMS_P2;Temp;Humidity;BMP_temperature;BMP_pressure;BME280_temperature;BME280_humidity;BME280_pressure;Samples;Min_cycle;Max_cycle;Signal;HPM_P1;HPM_P2
2021/11/24 00:00:48;;;;;;;1999.90;999.90;;;;;;;4.50;100.00;100006.41;5094359;28;20495;-33
2021/11/24 00:03:14;;;;;;;1999.90;999.90;;;;;;;4.44;100.00;100004.56;5094617;28;20119;-33
2021/11/24 00:05:40;;;;;;;1999.90;999.90;;;;;;;4.36;100.00;100016.06;5094502;28;20451;-34
2021/11/24 00:08:06;;;;;;;1999.90;999.90;;;;;;;4.27;100.00;100009.31;5094597;28;20032;-33
2021/11/24 00:10:34;;;;;;;1999.90;999.90;;;;;;;4.23;100.00;100014.19;5094545;28;20024;-33
2021/11/24 00:13:02;;;;;;;1999.90;999.90;;;;;;;4.15;100.00;100023.06;5094423;28;20035;-33
2021/11/24 00:15:28;;;;;;;1999.90;999.90;;;;;;;4.17;100.00;100021.06;5094524;28;20077;-33
2021/11/24 00:17:54;;;;;;;1999.90;999.90;;;;;;;4.20;100.00;100027.78;5094472;28;20102;-34
2021/11/24 00:20:20;;;;;;;1999.90;999.90;;;;;;;4.19;100.00;100040.13;5094346;28;20035;-33
2021/11/24 00:22:46;;;;;;;1999.90;999.90;;;;;;;4.22;100.00;100038.94;5094582;28;20036;-33
2021/11/24 00:25:12;;;;;;;1999.90;999.90;;;;;;;4.20;100.00;100033.06;5094005;28;20476;-34
2021/11/24 00:27:38;;;;;;;1999.90;999.90;;;;;;;4.15;100.00;100041.50;5094211;28;20123;-34
2021/11/24 00:30:06;;;;;;;1999.90;999.90;;;;;;;4.15;100.00;100038.88;5094178;28;20119;-34
2021/11/24 00:32:33;;;;;;;1999.90;999.90;;;;;;;4.09;100.00;100044.94;5094354;28;20027;-34
2021/11/24 00:34:59;;;;;;;1999.90;999.90;;;;;;;4.04;100.00;100049.97;5094315;28;20035;-34
2021/11/24 00:37:26;;;;;;;1999.90;999.90;;;;;;;3.99;100.00;100045.28;5093735;28;20044;-33
2021/11/24 00:39:52;;;;;;;1999.90;999.90;;;;;;;3.97;100.00;100042.00;5094297;28;20089;-34
2021/11/24 00:42:18;;;;;;;1999.90;999.90;;;;;;;3.91;100.00;100040.16;5094113;28;20077;-33
2021/11/24 00:44:44;;;;;;;1999.90;999.90;;;;;;;3.89;100.00;100039.53;5093830;28;20412;-33
2021/11/24 00:47:09;;;;;;;1999.90;999.90;;;;;;;3.85;100.00;100041.72;5093810;28;20031;-33
2021/11/24 00:49:39;;;;;;;1999.90;999.90;;;;;;;3.77;100.00;100033.94;5093761;28;20030;-34
2021/11/24 00:52:06;;;;;;;1999.90;999.90;;;;;;;3.62;100.00;100041.13;5093673;28;20020;-33
2021/11/24 00:54:32;;;;;;;1999.90;999.90;;;;;;;3.58;100.00;100037.22;5094469;28;20028;-33
2021/11/24 00:56:58;;;;;;;1999.90;999.90;;;;;;;3.54;100.00;100034.19;5093460;28;20027;-33
2021/11/24 00:59:24;;;;;;;1999.90;999.90;;;;;;;3.37;100.00;100028.34;5093577;28;20035;-33
2021/11/24 01:01:50;;;;;;;1999.90;999.90;;;;;;;3.38;100.00;100029.13;5093447;28;20024;-33
2021/11/24 01:04:16;;;;;;;1999.90;999.90;;;;;;;3.38;100.00;100034.41;5093717;28;20492;-33
2021/11/24 01:06:41;;;;;;;1999.90;999.90;;;;;;;3.28;100.00;100026.84;5093686;28;20028;-33
2021/11/24 01:09:07;;;;;;;1999.90;999.90;;;;;;;3.26;100.00;100027.03;5093372;28;20027;-33
2021/11/24 01:11:34;;;;;;;1999.90;999.90;;;;;;;3.23;100.00;100024.78;5093298;28;20023;-33
2021/11/24 01:14:00;;;;;;;1999.90;999.90;;;;;;;3.19;100.00;100028.78;5092736;28;20039;-33
2021/11/24 01:16:26;;;;;;;1999.90;999.90;;;;;;;3.01;100.00;100025.75;5093098;28;20079;-33
2021/11/24 01:18:52;;;;;;;1999.90;999.90;;;;;;;2.97;100.00;100035.84;5093600;28;20129;-32
2021/11/24 01:21:18;;;;;;;1999.90;999.90;;;;;;;2.80;100.00;100025.53;5093218;28;20518;-33
2021/11/24 01:23:45;;;;;;;1999.90;999.90;;;;;;;2.83;100.00;100031.41;5092980;28;20032;-33
2021/11/24 01:26:11;;;;;;;1999.90;999.90;;;;;;;2.76;100.00;100029.53;5093017;28;20039;-32
2021/11/24 01:28:37;;;;;;;1999.90;999.90;;;;;;;2.72;100.00;100017.72;5092964;28;20015;-32
2021/11/24 01:31:03;;;;;;;1999.90;999.90;;;;;;;2.75;100.00;100022.63;5093260;28;20028;-33
2021/11/24 01:33:28;;;;;;;1999.90;999.90;;;;;;;2.75;100.00;100019.19;5093489;28;20468;-33
2021/11/24 01:35:54;;;;;;;1999.90;999.90;;;;;;;2.72;100.00;100022.19;5092769;28;20103;-32
2021/11/24 01:38:20;;;;;;;1999.90;999.90;;;;;;;2.68;100.00;100024.34;5092640;28;20048;-32
2021/11/24 01:40:46;;;;;;;1999.90;999.90;;;;;;;2.60;100.00;100025.28;5091581;28;20032;-33
2021/11/24 01:43:11;;;;;;;1999.90;999.90;;;;;;;2.59;100.00;100030.72;5092616;28;20028;-33
2021/11/24 01:45:37;;;;;;;1999.90;999.90;;;;;;;2.56;100.00;100033.72;5092625;28;20028;-33
2021/11/24 01:48:04;;;;;;;1999.90;999.90;;;;;;;2.50;100.00;100032.63;5092956;28;20097;-32
2021/11/24 01:50:30;;;;;;;1999.90;999.90;;;;;;;2.49;100.00;100028.38;5092890;28;20035;-33
2021/11/24 01:52:56;;;;;;;1999.90;999.90;;;;;;;2.53;100.00;100027.00;5093385;28;20020;-33
2021/11/24 01:55:22;;;;;;;1999.90;999.90;;;;;;;2.52;100.00;100032.47;5092415;28;20020;-33
2021/11/24 01:57:50;;;;;;;1999.90;999.90;;;;;;;2.50;100.00;100027.38;5092497;28;20108;-33
2021/11/24 02:00:22;;;;;;;1999.90;999.90;;;;;;;2.52;100.00;100033.25;5092393;28;20534;-32
2021/11/24 02:02:48;;;;;;;1999.90;999.90;;;;;;;2.53;100.00;100032.28;5092337;28;20483;-33
2021/11/24 02:05:14;;;;;;;1999.90;999.90;;;;;;;2.50;100.00;100035.28;5092907;28;20039;-32
2021/11/24 02:07:40;;;;;;;1999.90;999.90;;;;;;;2.50;100.00;100030.00;5092285;28;20038;-33
2021/11/24 02:10:06;;;;;;;1999.90;999.90;;;;;;;2.41;100.00;100026.66;5092303;28;20108;-32
2021/11/24 02:12:31;;;;;;;;;;;;;;;2.33;100.00;100039.09;5092745;28;20036;-32
2021/11/24 02:14:57;;;;;;;1999.90;999.90;;;;;;;2.35;100.00;100035.28;5090886;28;19934;-33
2021/11/24 02:17:24;;;;;;;1999.90;999.90;;;;;;;2.39;100.00;100033.09;5092487;28;20094;-33
2021/11/24 02:19:49;;;;;;;;;;;;;;;2.37;100.00;100043.78;5092913;28;20028;-33
2021/11/24 02:22:15;;;;;;;1999.90;999.90;;;;;;;2.27;100.00;100041.41;5092762;28;20360;-32
2021/11/24 02:24:41;;;;;;;1999.90;999.90;;;;;;;2.20;100.00;100035.28;5092207;28;20126;-33
2021/11/24 02:27:09;;;;;;;1999.90;999.90;;;;;;;2.23;100.00;100029.66;5091915;28;20032;-33
2021/11/24 02:29:36;;;;;;;1999.90;999.90;;;;;;;2.20;100.00;100035.28;5092369;28;20077;-32
2021/11/24 02:32:04;;;;;;;1999.90;999.90;;;;;;;2.17;100.00;100027.72;5091968;28;20093;-33
2021/11/24 02:34:30;;;;;;;1999.90;999.90;;;;;;;2.06;100.00;100038.72;5091942;28;20027;-33
2021/11/24 02:36:57;;;;;;;1999.90;999.90;;;;;;;2.10;100.00;100032.09;5092010;28;20046;-33
2021/11/24 02:39:23;;;;;;;1999.90;999.90;;;;;;;2.06;100.00;100043.97;5091941;28;20032;-32
2021/11/24 02:41:48;;;;;;;1999.90;999.90;;;;;;;2.09;100.00;100044.41;5092134;28;20030;-32
2021/11/24 02:44:35;;;;;;;1999.90;999.90;;;;;;;2.06;100.00;100049.22;5091927;28;20032;-33
2021/11/24 02:47:09;;;;;;;1999.90;999.90;;;;;;;1.98;100.00;100050.09;5091835;28;20118;-33
2021/11/24 02:49:36;;;;;;;1999.90;999.90;;;;;;;1.98;100.00;100057.97;5091746;28;20115;-33
2021/11/24 02:52:03;;;;;;;1999.90;999.90;;;;;;;1.95;100.00;100058.34;5091795;28;20038;-34
2021/11/24 02:54:29;;;;;;;1999.90;999.90;;;;;;;1.90;100.00;100068.59;5092631;28;20028;-33
2021/11/24 02:56:57;;;;;;;1999.90;999.90;;;;;;;1.95;100.00;100081.19;5092515;28;20062;-33
2021/11/24 02:59:23;;;;;;;1999.90;999.90;;;;;;;1.85;100.00;100069.13;5091741;28;20499;-33
2021/11/24 03:01:49;;;;;;;1999.90;999.90;;;;;;;1.85;100.00;100071.75;5091620;28;20025;-33
2021/11/24 03:04:14;;;;;;;1999.90;999.90;;;;;;;1.82;100.00;100080.00;5091699;28;20037;-33
2021/11/24 03:06:40;;;;;;;1999.90;999.90;;;;;;;1.89;100.00;100072.19;5091638;28;20028;-33
2021/11/24 03:09:06;;;;;;;1999.90;999.90;;;;;;;1.85;100.00;100082.25;5091497;28;20035;-33
2021/11/24 03:11:32;;;;;;;1999.90;999.90;;;;;;;1.83;100.00;100081.59;5091676;28;20172;-33
2021/11/24 03:13:58;;;;;;;1999.90;999.90;;;;;;;1.73;100.00;100095.00;5091905;28;20093;-33
2021/11/24 03:16:24;;;;;;;1999.90;999.90;;;;;;;1.76;100.00;100091.19;5091470;28;20035;-33
2021/11/24 03:18:49;;;;;;;1999.90;999.90;;;;;;;1.79;100.00;100079.50;5091596;28;20031;-32
2021/11/24 03:21:15;;;;;;;1999.90;999.90;;;;;;;1.82;100.00;100093.13;5091499;28;20020;-32
2021/11/24 03:23:41;;;;;;;1999.90;999.90;;;;;;;1.84;100.00;100093.75;5091477;28;20024;-32
2021/11/24 03:26:06;;;;;;;1999.90;999.90;;;;;;;1.79;100.00;100098.75;5091410;28;20024;-32
2021/11/24 03:28:32;;;;;;;1999.90;999.90;;;;;;;1.82;100.00;100103.66;5091489;28;20074;-33
2021/11/24 03:30:58;;;;;;;1999.90;999.90;;;;;;;1.85;100.00;100105.91;5092070;28;20020;-33
2021/11/24 03:33:23;;;;;;;1999.90;999.90;;;;;;;1.88;100.00;100109.97;5091446;28;20035;-33
2021/11/24 03:35:49;;;;;;;1999.90;999.90;;;;;;;1.87;100.00;100108.38;5092491;28;20032;-32
2021/11/24 03:38:15;;;;;;;1999.90;999.90;;;;;;;1.90;100.00;100113.28;5094976;28;20105;-33
2021/11/24 03:40:41;;;;;;;1999.90;999.90;;;;;;;1.80;100.00;100120.56;5095089;28;20024;-33
2021/11/24 03:43:06;;;;;;;1999.90;999.90;;;;;;;1.75;100.00;100119.28;5094918;28;20024;-33
2021/11/24 03:45:34;;;;;;;1999.90;999.90;;;;;;;1.76;100.00;100125.34;5094954;28;20051;-33
2021/11/24 03:48:03;;;;;;;1999.90;999.90;;;;;;;1.77;100.00;100124.38;5095204;28;20485;-33
2021/11/24 03:50:28;;;;;;;1999.90;999.90;;;;;;;1.71;100.00;100125.06;5094934;28;20020;-32
2021/11/24 03:52:55;;;;;;;1999.90;999.90;;;;;;;1.70;100.00;100131.31;5094907;28;20027;-33
2021/11/24 03:55:21;;;;;;;1999.90;999.90;;;;;;;1.67;100.00;100134.28;5095085;28;20403;-33
2021/11/24 03:57:47;;;;;;;1999.90;999.90;;;;;;;1.72;100.00;100124.91;5094985;28;20031;-33
2021/11/24 04:00:20;;;;;;;1999.90;999.90;;;;;;;1.71;100.00;100135.59;5095026;28;20376;-33
2021/11/24 04:02:46;;;;;;;1999.90;999.90;;;;;;;1.71;100.00;100144.28;5094506;28;20032;-33
2021/11/24 04:05:12;;;;;;;;;;;;;;;1.67;100.00;100140.34;5095118;28;20491;-33
2021/11/24 04:07:39;;;;;;;1999.90;999.90;;;;;;;1.64;100.00;100147.78;5094481;28;19912;-33
2021/11/24 04:10:06;;;;;;;1999.90;999.90;;;;;;;1.60;100.00;100143.84;5095610;28;20032;-33
2021/11/24 04:12:33;;;;;;;1999.90;999.90;;;;;;;1.60;100.00;100151.75;5094442;28;20542;-33
2021/11/24 04:14:59;;;;;;;1999.90;999.90;;;;;;;1.61;100.00;100151.56;5094457;28;20032;-33
2021/11/24 04:17:25;;;;;;;1999.90;999.90;;;;;;;1.64;100.00;100160.91;5094620;28;20070;-33
2021/11/24 04:19:51;;;;;;;1999.90;999.90;;;;;;;1.63;100.00;100160.09;5094332;28;20128;-33
2021/11/24 04:22:17;;;;;;;1999.90;999.90;;;;;;;1.52;100.00;100158.69;5094243;28;20407;-33
2021/11/24 04:24:43;;;;;;;1999.90;999.90;;;;;;;1.49;100.00;100163.47;5094366;28;20032;-33
2021/11/24 04:27:09;;;;;;;1999.90;999.90;;;;;;;1.45;100.00;100160.34;5094091;28;20461;-33
2021/11/24 04:29:34;;;;;;;1999.90;999.90;;;;;;;1.48;100.00;100165.25;5094168;28;20050;-32
2021/11/24 04:32:00;;;;;;;1999.90;999.90;;;;;;;1.39;100.00;100172.41;5094073;28;20093;-33
2021/11/24 04:34:27;;;;;;;1999.90;999.90;;;;;;;1.41;100.00;100172.22;5094120;28;20082;-33
2021/11/24 04:36:53;;;;;;;1999.90;999.90;;;;;;;1.41;100.00;100177.47;5094094;28;20036;-34
2021/11/24 04:39:19;;;;;;;1999.90;999.90;;;;;;;1.42;100.00;100176.47;5094251;28;20028;-33
2021/11/24 04:41:45;;;;;;;1999.90;999.90;;;;;;;1.38;100.00;100172.53;5093920;28;20428;-32
2021/11/24 04:44:11;;;;;;;1999.90;999.90;;;;;;;1.38;100.00;100177.78;5093891;28;20161;-33
2021/11/24 04:46:37;;;;;;;1999.90;999.90;;;;;;;1.28;100.00;100179.81;5093678;28;20082;-33
2021/11/24 04:49:02;;;;;;;1999.90;999.90;;;;;;;1.28;100.00;100178.03;5094133;28;20023;-32
2021/11/24 04:51:28;;;;;;;1999.90;999.90;;;;;;;1.29;100.00;100177.00;5093736;28;20483;-33
2021/11/24 04:53:54;;;;;;;1999.90;999.90;;;;;;;1.31;100.00;100182.13;5093721;28;20063;-33
2021/11/24 04:56:20;;;;;;;1999.90;999.90;;;;;;;1.22;100.00;100183.97;5093913;28;20029;-33
2021/11/24 04:58:52;;;;;;;1999.90;999.90;;;;;;;1.24;100.00;100186.41;5092213;28;20557;-32
2021/11/24 05:01:19;;;;;;;1999.90;999.90;;;;;;;1.27;100.00;100188.69;5093550;28;20032;-33
2021/11/24 05:03:45;;;;;;;1999.90;999.90;;;;;;;1.26;100.00;100190.47;5093368;28;20035;-33
2021/11/24 05:06:11;;;;;;;1999.90;999.90;;;;;;;1.25;100.00;100188.88;5093532;28;20024;-33
2021/11/24 05:08:39;;;;;;;1999.90;999.90;;;;;;;1.22;100.00;100202.34;5093326;28;20051;-33
2021/11/24 05:11:07;;;;;;;1999.90;999.90;;;;;;;1.28;100.00;100201.66;5093557;28;20028;-33
2021/11/24 05:13:33;;;;;;;1999.90;999.90;;;;;;;1.26;100.00;100208.06;5093303;28;20028;-33
2021/11/24 05:16:04;;;;;;;;;;;;;;;1.27;100.00;100209.69;5093956;28;20562;-33
2021/11/24 05:18:38;;;;;;;1999.90;999.90;;;;;;;1.24;100.00;100215.28;5093202;28;19912;-33
2021/11/24 05:21:13;;;;;;;1999.90;999.90;;;;;;;1.22;100.00;100216.28;5093526;28;20373;-33
2021/11/24 05:23:42;;;;;;;1999.90;999.90;;;;;;;1.16;100.00;100214.34;5093085;28;20541;-33
2021/11/24 05:26:08;;;;;;;1999.90;999.90;;;;;;;1.22;100.00;100220.72;5093013;28;20066;-33
2021/11/24 05:28:34;;;;;;;;;;;;;;;1.20;100.00;100212.16;5093667;28;20080;-33
2021/11/24 05:31:01;;;;;;;1999.90;999.90;;;;;;;1.17;100.00;100212.50;5093260;28;20376;-32
2021/11/24 05:33:27;;;;;;;1999.90;999.90;;;;;;;1.23;100.00;100219.72;5093400;28;20369;-33
2021/11/24 05:35:53;;;;;;;1999.90;999.90;;;;;;;1.28;100.00;100221.81;5093001;28;20024;-33
2021/11/24 05:38:20;;;;;;;1999.90;999.90;;;;;;;1.37;100.00;100228.69;5092604;28;20047;-33
2021/11/24 05:40:46;;;;;;;1999.90;999.90;;;;;;;1.45;100.00;100236.53;5093015;28;20043;-32
2021/11/24 05:43:13;;;;;;;1999.90;999.90;;;;;;;1.51;100.00;100240.28;5093051;28;20031;-33
2021/11/24 05:45:45;;;;;;;1999.90;999.90;;;;;;;1.63;100.00;100240.72;5092759;28;20044;-33
2021/11/24 05:48:13;;;;;;;1999.90;999.90;;;;;;;1.74;100.00;100235.88;5093488;28;20177;-33
2021/11/24 05:50:41;;;;;;;1999.90;999.90;;;;;;;1.96;100.00;100237.91;5092980;28;20032;-33
2021/11/24 05:53:07;;;;;;;1999.90;999.90;;;;;;;2.01;100.00;100235.56;5092878;28;20463;-33
2021/11/24 05:55:32;;;;;;;1999.90;999.90;;;;;;;2.09;100.00;100241.59;5092487;28;20115;-33
2021/11/24 05:57:58;;;;;;;1999.90;999.90;;;;;;;2.09;100.00;100241.59;5092050;28;20032;-33
2021/11/24 06:00:24;;;;;;;1999.90;999.90;;;;;;;2.13;100.00;100242.09;5092407;28;20030;-33
2021/11/24 06:02:50;;;;;;;1999.90;999.90;;;;;;;2.16;100.00;100238.25;5092367;28;20032;-33
2021/11/24 06:05:16;;;;;;;1999.90;999.90;;;;;;;2.36;100.00;100260.47;5092350;28;20028;-33
2021/11/24 06:07:42;;;;;;;1999.90;999.90;;;;;;;2.38;100.00;100255.88;5092336;28;20032;-33
2021/11/24 06:10:09;;;;;;;1999.90;999.90;;;;;;;2.30;100.00;100258.53;5092339;28;20081;-33
2021/11/24 06:12:36;;;;;;;1999.90;999.90;;;;;;;2.32;100.00;100259.22;5092556;28;20032;-33
2021/11/24 06:15:02;;;;;;;;;;;;;;;2.38;100.00;100255.88;5092726;28;20111;-33
2021/11/24 06:17:28;;;;;;;1999.90;999.90;;;;;;;2.33;100.00;100270.53;5092395;28;19912;-33
2021/11/24 06:19:54;;;;;;;1999.90;999.90;;;;;;;2.36;100.00;100275.44;5092490;28;20034;-33
2021/11/24 06:22:20;;;;;;;1999.90;999.90;;;;;;;2.37;100.00;100277.09;5092182;28;20412;-33
2021/11/24 06:24:46;;;;;;;1999.90;999.90;;;;;;;2.32;100.00;100282.88;5092390;28;20407;-33
2021/11/24 06:27:12;;;;;;;1999.90;999.90;;;;;;;2.35;100.00;100282.53;5092377;28;20036;-32
2021/11/24 06:29:38;;;;;;;1999.90;999.90;;;;;;;2.43;100.00;100292.97;5092061;28;20020;-33
2021/11/24 06:32:04;;;;;;;1999.90;999.90;;;;;;;2.56;100.00;100296.84;5092309;28;20043;-33
2021/11/24 06:34:29;;;;;;;1999.90;999.90;;;;;;;2.62;100.00;100298.75;5092317;28;20032;-33
2021/11/24 06:36:56;;;;;;;1999.90;999.90;;;;;;;2.70;100.00;100306.59;5091640;28;20488;-32
2021/11/24 06:39:23;;;;;;;1999.90;999.90;;;;;;;2.72;100.00;100301.16;5092007;28;20476;-33
2021/11/24 06:41:49;;;;;;;1999.90;999.90;;;;;;;2.79;100.00;100307.34;5091918;28;20107;-32
2021/11/24 06:44:15;;;;;;;1999.90;999.90;;;;;;;2.77;100.00;100302.25;5090956;28;20399;-32
2021/11/24 06:46:41;;;;;;;1999.90;999.90;;;;;;;2.85;100.00;100306.63;5092161;28;20039;-33
2021/11/24 06:49:07;;;;;;;1999.90;999.90;;;;;;;2.95;100.00;100301.94;5091868;28;20555;-32
2021/11/24 06:51:34;;;;;;;1999.90;999.90;;;;;;;2.98;100.00;100284.94;5091822;28;20044;-32
2021/11/24 06:54:00;;;;;;;1999.90;999.90;;;;;;;3.13;100.00;100303.41;5091813;28;20036;-33
2021/11/24 06:56:25;;;;;;;1999.90;999.90;;;;;;;3.23;100.00;100303.13;5091732;28;20032;-33
2021/11/24 06:58:51;;;;;;;1999.90;999.90;;;;;;;3.20;100.00;100306.97;5090508;28;20407;-33
2021/11/24 07:01:17;;;;;;;1999.90;999.90;;;;;;;3.31;100.00;100306.50;5091775;28;20067;-33
2021/11/24 07:03:43;;;;;;;1999.90;999.90;;;;;;;3.52;100.00;100304.94;5091603;28;20039;-33
2021/11/24 07:06:08;;;;;;;1999.90;999.90;;;;;;;3.66;100.00;100308.59;5090501;28;20036;-33
2021/11/24 07:08:34;;;;;;;1999.90;999.90;;;;;;;3.76;100.00;100303.84;5091459;28;20024;-33
2021/11/24 07:11:00;;;;;;;1999.90;999.90;;;;;;;3.85;100.00;100307.22;5093218;28;20469;-32
2021/11/24 07:13:26;;;;;;;1999.90;999.90;;;;;;;3.84;100.00;100311.66;5095827;28;20407;-33
2021/11/24 07:15:52;;;;;;;1999.90;999.90;;;;;;;3.83;100.00;100307.41;5095318;28;20487;-33
2021/11/24 07:18:17;;;;;;;1999.90;999.90;;;;;;;3.91;100.00;100310.94;5095663;28;20028;-33
2021/11/24 07:20:43;;;;;;;1999.90;999.90;;;;;;;3.99;100.00;100324.00;5095764;28;20028;-32
2021/11/24 07:23:09;;;;;;;1999.90;999.90;;;;;;;4.03;100.00;100318.16;5093993;28;20080;-33
2021/11/24 07:25:35;;;;;;;1999.90;999.90;;;;;;;4.06;100.00;100329.34;5095367;28;20484;-33
2021/11/24 07:28:01;;;;;;;1999.90;999.90;;;;;;;4.13;100.00;100325.78;5095175;28;20035;-33
2021/11/24 07:30:27;;;;;;;1999.90;999.90;;;;;;;4.26;100.00;100321.66;5095181;28;20078;-33
2021/11/24 07:32:53;;;;;;;1999.90;999.90;;;;;;;4.25;100.00;100320.84;5095233;28;20032;-33
2021/11/24 07:35:19;;;;;;;1999.90;999.90;;;;;;;4.37;100.00;100324.59;5095047;28;20032;-33
2021/11/24 07:37:44;;;;;;;1999.90;999.90;;;;;;;4.45;100.00;100331.59;5094966;28;20047;-33
2021/11/24 07:40:11;;;;;;;1999.90;999.90;;;;;;;4.51;100.00;100335.31;5094995;28;20085;-33
2021/11/24 07:42:38;;;;;;;1999.90;999.90;;;;;;;4.63;100.00;100333.81;5094871;28;20024;-33
2021/11/24 07:45:04;;;;;;;;;;;;;;;4.78;100.00;100335.56;5095856;28;20104;-33
2021/11/24 07:47:30;;;;;;;1999.90;999.90;;;;;;;4.77;100.00;100341.84;5094973;28;19908;-33
2021/11/24 07:49:56;;;;;;;1999.90;999.90;;;;;;;4.81;100.00;100343.09;5095007;28;20071;-33
2021/11/24 07:52:22;;;;;;;1999.90;999.90;;;;;;;4.76;100.00;100340.19;5094954;28;20477;-33
2021/11/24 07:54:48;;;;;;;1999.90;999.90;;;;;;;4.81;100.00;100346.53;5094850;28;20078;-33
2021/11/24 07:57:17;;;;;;;1999.90;999.90;;;;;;;4.85;100.00;100347.81;5094820;28;20411;-33
2021/11/24 07:59:43;;;;;;;1999.90;999.90;;;;;;;4.93;100.00;100343.41;5094653;28;20449;-33
2021/11/24 08:02:08;;;;;;;1999.90;999.90;;;;;;;5.06;99.85;100351.44;5094579;28;20028;-33
2021/11/24 08:04:34;;;;;;;1999.90;999.90;;;;;;;5.08;99.13;100349.44;5094890;28;20040;-33
2021/11/24 08:07:03;;;;;;;1999.90;999.90;;;;;;;5.03;96.82;100352.63;5094635;28;20074;-33
2021/11/24 08:09:29;;;;;;;1999.90;999.90;;;;;;;5.19;99.62;100350.72;5093478;28;20061;-33
2021/11/24 08:11:58;;;;;;;1999.90;999.90;;;;;;;5.22;97.39;100353.78;5094557;28;20028;-33
2021/11/24 08:14:27;;;;;;;1999.90;999.90;;;;;;;5.34;97.91;100359.34;5094292;28;20032;-32
2021/11/24 08:16:53;;;;;;;1999.90;999.90;;;;;;;5.51;100.00;100351.94;5094379;28;20107;-33
2021/11/24 08:19:19;;;;;;;;;;;;;;;5.57;97.68;100355.66;5094721;28;20115;-33
2021/11/24 08:21:45;;;;;;;1999.90;999.90;;;;;;;5.53;97.55;100354.41;5094174;28;19943;-33
2021/11/24 08:24:11;;;;;;;1999.90;999.90;;;;;;;5.44;96.01;100349.25;5094251;28;20456;-33
2021/11/24 08:26:39;;;;;;;1999.90;999.90;;;;;;;5.51;97.19;100351.16;5094046;28;20024;-33
2021/11/24 08:29:06;;;;;;;1999.90;999.90;;;;;;;5.53;100.00;100349.09;5094464;28;20465;-33
2021/11/24 08:31:31;;;;;;;1999.90;999.90;;;;;;;5.65;100.00;100350.19;5094115;28;20491;-33
2021/11/24 08:33:57;;;;;;;1999.90;999.90;;;;;;;5.70;99.47;100352.28;5094023;28;20064;-33
2021/11/24 08:36:23;;;;;;;1999.90;999.90;;;;;;;5.86;100.00;100354.56;5093984;28;20035;-32
2021/11/24 08:38:48;;;;;;;1999.90;999.90;;;;;;;5.90;100.00;100349.69;5093566;28;20047;-32
2021/11/24 08:41:16;;;;;;;1999.90;999.90;;;;;;;5.90;98.39;100347.88;5094255;28;20047;-33
2021/11/24 08:43:42;;;;;;;1999.90;999.90;;;;;;;5.84;100.00;100345.19;5093833;28;20077;-33
2021/11/24 08:46:08;;;;;;;1999.90;999.90;;;;;;;5.87;94.63;100342.16;5094431;28;20070;-34
2021/11/24 08:48:34;;;;;;;1999.90;999.90;;;;;;;5.96;95.11;100344.44;5093818;28;20754;-33
2021/11/24 08:51:00;;;;;;;1999.90;999.90;;;;;;;6.03;96.00;100341.03;5093780;28;20020;-33
2021/11/24 08:53:27;;;;;;;1999.90;999.90;;;;;;;5.97;97.12;100332.06;5093705;28;20051;-33
2021/11/24 08:55:53;;;;;;;1999.90;999.90;;;;;;;6.15;99.05;100333.34;5093901;28;20100;-33
2021/11/24 08:58:19;;;;;;;1999.90;999.90;;;;;;;6.27;85.42;100332.56;5093854;28;20519;-33
2021/11/24 09:00:46;;;;;;;1999.90;999.90;;;;;;;6.42;91.19;100340.34;5093529;28;20119;-33
2021/11/24 09:03:12;;;;;;;1999.90;999.90;;;;;;;6.36;92.94;100337.66;5093468;28;20115;-33
2021/11/24 09:05:39;;;;;;;1999.90;999.90;;;;;;;6.37;86.54;100326.06;5093404;28;20107;-33
2021/11/24 09:08:05;;;;;;;1999.90;999.90;;;;;;;6.45;85.74;100332.00;5093414;28;20036;-33
2021/11/24 09:10:32;;;;;;;;;;;;;;;6.32;84.49;100334.63;5093739;28;20036;-33
2021/11/24 09:13:02;;;;;;;1999.90;999.90;;;;;;;6.39;84.75;100326.69;5093231;28;19961;-33
2021/11/24 09:15:28;;;;;;;1999.90;999.90;;;;;;;6.58;82.24;100325.91;5093264;28;20032;-34
2021/11/24 09:17:54;;;;;;;1999.90;999.90;;;;;;;6.63;75.21;100328.75;5093604;28;20074;-33
2021/11/24 09:20:20;;;;;;;1999.90;999.90;;;;;;;6.64;76.94;100326.94;5093265;28;20028;-33
2021/11/24 09:22:47;;;;;;;1999.90;999.90;;;;;;;6.68;79.97;100320.22;5093015;28;20024;-33
2021/11/24 09:25:16;;;;;;;1999.90;999.90;;;;;;;6.88;76.68;100319.41;5093369;28;20055;-33
2021/11/24 09:27:57;;;;;;;1999.90;999.90;;;;;;;6.95;71.56;100317.56;5093046;28;20063;-33
2021/11/24 09:30:24;;;;;;;1999.90;999.90;;;;;;;7.06;75.79;100324.91;5093343;28;20373;-34
2021/11/24 09:32:50;;;;;;;1999.90;999.90;;;;;;;7.03;63.65;100325.28;5092298;28;20111;-33
2021/11/24 09:35:16;;;;;;;1999.90;999.90;;;;;;;7.03;57.73;100321.84;5092703;28;20142;-33
2021/11/24 09:37:42;;;;;;;1999.90;999.90;;;;;;;7.03;59.10;100322.66;5092716;28;20043;-33
2021/11/24 09:40:10;;;;;;;1999.90;999.90;;;;;;;6.64;64.63;100322.44;5092793;28;20024;-33
2021/11/24 09:42:39;;;;;;;1999.90;999.90;;;;;;;6.85;67.50;100315.31;5092511;28;20028;-34
2021/11/24 09:45:05;;;;;;;1999.90;999.90;;;;;;;6.61;62.46;100322.84;5092704;28;20051;-33
2021/11/24 09:47:34;;;;;;;1999.90;999.90;;;;;;;6.50;66.74;100315.50;5092944;28;20365;-33
2021/11/24 09:50:04;;;;;;;1999.90;999.90;;;;;;;6.64;68.90;100311.84;5092610;28;20028;-33
2021/11/24 09:52:32;;;;;;;1999.90;999.90;;;;;;;6.81;69.17;100320.22;5092592;28;20027;-33
2021/11/24 09:54:59;;;;;;;1999.90;999.90;;;;;;;6.76;71.80;100325.31;5092575;28;20024;-33
2021/11/24 09:57:26;;;;;;;1999.90;999.90;;;;;;;6.76;68.13;100311.25;5092556;28;20034;-33
2021/11/24 09:59:52;;;;;;;1999.90;999.90;;;;;;;6.87;74.29;100315.13;5092412;28;20081;-33
2021/11/24 10:02:19;;;;;;;1999.90;999.90;;;;;;;6.87;73.55;100312.47;5091152;28;20032;-33
2021/11/24 10:04:46;;;;;;;1999.90;999.90;;;;;;;6.95;77.30;100314.94;5092695;28;20070;-34
2021/11/24 10:07:17;;;;;;;1999.90;999.90;;;;;;;6.77;77.73;100321.66;5092331;28;20134;-34
2021/11/24 10:09:45;;;;;;;1999.90;999.90;;;;;;;6.81;79.13;100309.63;5092280;28;20039;-33
2021/11/24 10:12:12;;;;;;;1999.90;999.90;;;;;;;6.92;76.57;100312.69;5092265;28;20057;-34
2021/11/24 10:14:40;;;;;;;1999.90;999.90;;;;;;;6.89;75.41;100305.16;5092863;28;20035;-33
2021/11/24 10:17:07;;;;;;;1999.90;999.90;;;;;;;6.62;76.56;100297.16;5092164;28;20039;-33
2021/11/24 10:19:34;;;;;;;1999.90;999.90;;;;;;;6.67;73.24;100291.28;5090935;28;20035;-33
2021/11/24 10:22:11;;;;;;;1999.90;999.90;;;;;;;6.81;80.71;100298.19;5092105;28;20023;-33
2021/11/24 10:24:39;;;;;;;1999.90;999.90;;;;;;;6.91;75.59;100300.44;5092466;28;20449;-33
2021/11/24 10:27:09;;;;;;;1999.90;999.90;;;;;;;6.79;77.70;100292.31;5091969;28;20032;-33
2021/11/24 10:29:36;;;;;;;1999.90;999.90;;;;;;;6.95;78.99;100289.22;5091933;28;20028;-33
2021/11/24 10:32:05;;;;;;;1999.90;999.90;;;;;;;6.96;76.27;100288.22;5091997;28;20024;-33
2021/11/24 10:34:39;;;;;;;1999.90;999.90;;;;;;;7.03;75.51;100282.91;5091912;28;20099;-33
2021/11/24 10:37:15;;;;;;;1999.90;999.90;;;;;;;6.84;74.81;100279.25;5091796;28;20052;-32
2021/11/24 10:39:46;;;;;;;1999.90;999.90;;;;;;;6.89;74.54;100276.81;5091847;28;20415;-33
2021/11/24 10:42:16;;;;;;;1999.90;999.90;;;;;;;6.84;74.99;100276.59;5091835;28;20098;-33
2021/11/24 10:45:10;;;;;;;1999.90;999.90;;;;;;;6.93;72.46;100280.69;5093992;28;20024;-33
2021/11/24 10:47:48;;;;;;;1999.90;999.90;;;;;;;6.96;70.09;100272.31;5096482;28;20075;-34
2021/11/24 10:50:20;;;;;;;1999.90;999.90;;;;;;;6.88;71.04;100269.06;5098557;28;20395;-33